createdAt,value
2023-03-07T00:05:09.096Z,-6.64
2023-03-07T00:10:33.718Z,-6.60
2023-03-07T00:15:58.666Z,-6.39
2023-03-07T00:21:28.494Z,-6.39
2023-03-07T00:26:53.290Z,-6.51
2023-03-07T00:32:17.848Z,-6.55
2023-03-07T00:37:42.711Z,-6.50
2023-03-07T00:43:05.835Z,-6.75
2023-03-07T00:48:29.714Z,-7.10
2023-03-07T00:53:55.436Z,-7.20
2023-03-07T00:59:20.243Z,-7.28
2023-03-07T01:04:44.058Z,-7.22
2023-03-07T01:10:10.578Z,-7.08
2023-03-07T01:15:34.786Z,-7.29
2023-03-07T01:21:00.200Z,-7.51
2023-03-07T01:26:30.372Z,-7.61
2023-03-07T01:31:55.440Z,-7.37
2023-03-07T01:37:19.514Z,-7.27
2023-03-07T01:42:43.447Z,-7.21
2023-03-07T01:48:07.392Z,-7.09
2023-03-07T01:53:32.059Z,-7.27
2023-03-07T01:58:56.920Z,-7.28
2023-03-07T02:04:38.036Z,-7.31
2023-03-07T02:10:04.061Z,-7.28
2023-03-07T02:15:31.963Z,-7.28
2023-03-07T02:21:08.362Z,-7.10
2023-03-07T02:26:46.567Z,-6.93
2023-03-07T02:32:11.728Z,-6.90
2023-03-07T02:37:42.261Z,-6.99
2023-03-07T02:43:10.127Z,-7.00
2023-03-07T02:48:34.783Z,-6.99
2023-03-07T02:53:59.470Z,-6.90
2023-03-07T02:59:24.494Z,-6.95
2023-03-07T03:04:49.262Z,-6.95
2023-03-07T03:10:14.766Z,-6.93
2023-03-07T03:15:39.757Z,-6.90
2023-03-07T03:21:04.786Z,-7.04
2023-03-07T03:26:28.619Z,-7.18
2023-03-07T03:31:52.281Z,-7.35
2023-03-07T03:37:17.085Z,-7.50
2023-03-07T03:42:41.658Z,-7.58
2023-03-07T03:48:06.526Z,-7.77
2023-03-07T03:53:31.165Z,-8.04
2023-03-07T03:58:56.815Z,-8.13
2023-03-07T04:04:22.102Z,-8.06
2023-03-07T04:09:46.154Z,-8.01
2023-03-07T04:15:12.938Z,-8.00
2023-03-07T04:20:37.361Z,-8.03
2023-03-07T04:26:10.002Z,-8.01
2023-03-07T04:31:37.284Z,-8.09
2023-03-07T04:37:01.194Z,-8.03
2023-03-07T04:42:25.955Z,-8.01
2023-03-07T04:47:50.889Z,-7.96
2023-03-07T04:53:15.284Z,-7.89
2023-03-07T04:58:40.536Z,-7.80
2023-03-07T05:04:04.085Z,-7.72
2023-03-07T05:09:29.514Z,-7.65
2023-03-07T05:14:53.806Z,-7.35
2023-03-07T05:20:19.256Z,-7.18
2023-03-07T05:25:43.755Z,-7.09
2023-03-07T05:31:07.831Z,-6.95
2023-03-07T05:36:32.712Z,-6.76
2023-03-07T05:41:57.548Z,-6.71
2023-03-07T05:47:21.731Z,-6.64
2023-03-07T05:52:46.356Z,-6.58
2023-03-07T05:58:10.959Z,-6.52
2023-03-07T06:03:34.292Z,-6.48
2023-03-07T06:08:58.898Z,-6.43
2023-03-07T06:14:21.713Z,-6.35
2023-03-07T06:19:44.040Z,-6.24
2023-03-07T06:25:06.334Z,-6.18
2023-03-07T06:30:30.024Z,-6.08
2023-03-07T06:35:53.001Z,-5.90
2023-03-07T06:41:15.827Z,-5.66
2023-03-07T06:46:38.617Z,-5.51
2023-03-07T06:52:00.823Z,-5.37
2023-03-07T06:57:23.083Z,-5.25
2023-03-07T07:02:45.743Z,-5.06
2023-03-07T07:08:09.856Z,-4.85
2023-03-07T07:13:32.482Z,-4.70
2023-03-07T07:18:56.511Z,-4.59
2023-03-07T07:24:19.048Z,-4.44
2023-03-07T07:29:41.796Z,-4.34
2023-03-07T07:35:04.244Z,-4.23
2023-03-07T07:40:27.271Z,-4.10
2023-03-07T07:45:49.988Z,-3.98
2023-03-07T07:51:14.574Z,-3.83
2023-03-07T07:56:36.922Z,-3.70
2023-03-07T08:01:59.216Z,-3.58
2023-03-07T08:07:21.668Z,-3.38
2023-03-07T08:12:44.360Z,-3.24
2023-03-07T08:18:11.249Z,-3.14
2023-03-07T08:23:34.684Z,-3.01
2023-03-07T08:28:57.560Z,-2.86
2023-03-07T08:34:19.795Z,-2.66
2023-03-07T08:39:42.062Z,-2.54
2023-03-07T08:45:04.381Z,-2.42
2023-03-07T08:50:28.652Z,-2.29
2023-03-07T08:55:52.532Z,-2.24
2023-03-07T09:01:17.507Z,-2.07
2023-03-07T09:06:41.066Z,-1.83
2023-03-07T09:12:03.510Z,-1.66
2023-03-07T09:17:26.133Z,-1.69
2023-03-07T09:22:48.734Z,-1.57
2023-03-07T09:28:14.163Z,-1.56
2023-03-07T09:33:36.649Z,-1.50
2023-03-07T09:38:59.921Z,-1.51
2023-03-07T09:45:06.905Z,-1.45
2023-03-07T09:50:46.071Z,-1.36
2023-03-07T09:56:12.241Z,-1.28
2023-03-07T10:01:37.756Z,-1.21
2023-03-07T10:07:04.472Z,-1.20
2023-03-07T10:12:54.248Z,-1.02
2023-03-07T10:18:28.755Z,-0.88
2023-03-07T10:24:15.603Z,-0.80
2023-03-07T10:29:42.962Z,-0.65
2023-03-07T10:35:21.846Z,-0.52
2023-03-07T10:41:00.894Z,-0.38
2023-03-07T10:46:38.066Z,-0.32
2023-03-07T10:52:25.152Z,-0.27
2023-03-07T10:57:47.403Z,-0.31
2023-03-07T11:03:09.604Z,-0.31
2023-03-07T11:08:45.416Z,-0.23
2023-03-07T11:14:25.244Z,-0.19
2023-03-07T11:19:52.737Z,-0.14
2023-03-07T11:25:27.124Z,-0.10
2023-03-07T11:31:39.289Z,0.09
2023-03-07T11:37:14.240Z,0.09
2023-03-07T11:42:46.837Z,0.30
2023-03-07T11:54:45.627Z,0.60
2023-03-07T12:00:56.642Z,0.53
2023-03-07T12:06:49.943Z,0.60
2023-03-07T12:12:23.219Z,0.66
2023-03-07T12:17:58.631Z,0.73
2023-03-07T12:23:42.873Z,0.77
2023-03-07T12:29:09.892Z,0.83
2023-03-07T12:34:46.598Z,0.87
2023-03-07T12:40:35.146Z,0.90
2023-03-07T12:46:21.713Z,0.96
2023-03-07T12:51:47.679Z,1.06
2023-03-07T12:57:26.411Z,1.09
2023-03-07T13:02:55.683Z,1.07
2023-03-07T13:08:21.596Z,1.04
2023-03-07T13:14:08.669Z,0.99
2023-03-07T13:19:52.842Z,0.98
2023-03-07T13:25:54.552Z,0.93
2023-03-07T13:31:37.291Z,0.90
2023-03-07T13:37:02.051Z,0.84
2023-03-07T13:42:54.053Z,0.85
2023-03-07T13:48:18.730Z,0.86
2023-03-07T13:53:57.433Z,0.88
2023-03-07T13:59:32.005Z,0.91
2023-03-07T14:04:59.946Z,0.93
2023-03-07T14:10:35.380Z,0.94
2023-03-07T14:16:42.796Z,0.96
2023-03-07T14:22:11.852Z,0.98
2023-03-07T14:27:35.010Z,1.04
2023-03-07T14:32:59.701Z,1.08
2023-03-07T14:38:34.560Z,1.14
2023-03-07T14:44:10.983Z,1.17
2023-03-07T14:49:52.571Z,1.23
2023-03-07T14:55:24.821Z,1.21
2023-03-07T15:00:47.998Z,1.25
2023-03-07T15:06:15.021Z,1.26
2023-03-07T15:11:47.206Z,1.18
2023-03-07T15:17:12.216Z,1.09
2023-03-07T15:22:41.030Z,1.05
2023-03-07T15:28:14.456Z,1.06
2023-03-07T15:33:43.291Z,1.11
2023-03-07T15:39:21.421Z,1.14
2023-03-07T15:44:43.765Z,1.19
2023-03-07T15:50:13.209Z,1.19
2023-03-07T15:55:38.635Z,1.17
2023-03-07T16:01:19.421Z,1.14
2023-03-07T16:06:59.388Z,1.15
2023-03-07T16:12:26.818Z,1.14
2023-03-07T16:17:53.351Z,1.13
2023-03-07T16:23:18.723Z,1.10
2023-03-07T16:28:42.251Z,1.06
2023-03-07T16:34:06.512Z,1.12
2023-03-07T16:39:29.788Z,1.15
2023-03-07T16:44:53.671Z,1.20
2023-03-07T16:50:22.490Z,1.18
2023-03-07T16:55:44.933Z,1.17
2023-03-07T17:01:07.590Z,1.15
2023-03-07T17:06:39.295Z,1.25
2023-03-07T17:11:58.660Z,1.28
2023-03-07T17:17:30.505Z,1.33
2023-03-07T17:22:53.847Z,1.05
2023-03-07T17:28:22.262Z,0.90
2023-03-07T17:33:45.237Z,0.83
2023-03-07T17:39:09.430Z,0.67
2023-03-07T17:44:31.610Z,0.38
2023-03-07T17:49:55.013Z,0.10
2023-03-07T17:55:20.507Z,-0.16
2023-03-07T18:00:43.468Z,-0.38
2023-03-07T18:06:05.666Z,-0.54
2023-03-07T18:11:29.801Z,-0.54
2023-03-07T18:16:52.169Z,-0.54
2023-03-07T18:22:14.755Z,-0.57
2023-03-07T18:27:37.386Z,-0.55
2023-03-07T18:33:00.499Z,-0.54
2023-03-07T18:38:22.850Z,-0.56
2023-03-07T18:43:45.599Z,-0.54
2023-03-07T18:49:09.751Z,-0.53
2023-03-07T18:54:33.816Z,-0.51
2023-03-07T18:59:56.232Z,-0.54
2023-03-07T19:05:19.200Z,-0.44
2023-03-07T19:10:42.151Z,-0.38
2023-03-07T19:16:15.756Z,-0.33
2023-03-07T19:21:40.998Z,-0.35
2023-03-07T19:27:03.207Z,-0.38
2023-03-07T19:32:25.489Z,-0.39
2023-03-07T19:37:48.903Z,-0.38
2023-03-07T19:43:12.002Z,-0.41
2023-03-07T19:48:35.209Z,-0.42
2023-03-07T19:53:58.222Z,-0.41
2023-03-07T19:59:21.419Z,-0.42
2023-03-07T20:04:43.660Z,-0.44
2023-03-07T20:10:07.559Z,-0.46
2023-03-07T20:15:30.102Z,-0.44
2023-03-07T20:20:55.447Z,-0.49
2023-03-07T20:26:26.775Z,-0.49
2023-03-07T20:31:51.568Z,-0.47
2023-03-07T20:37:14.164Z,-0.49
2023-03-07T20:42:36.770Z,-0.52
2023-03-07T20:47:59.144Z,-0.57
2023-03-07T20:53:21.335Z,-0.59
2023-03-07T20:58:46.969Z,-0.60
2023-03-07T21:04:12.604Z,-0.65
2023-03-07T21:09:36.091Z,-0.71
2023-03-07T21:14:58.643Z,-0.75
2023-03-07T21:20:23.716Z,-0.75
2023-03-07T21:25:48.350Z,-0.72
2023-03-07T21:31:15.628Z,-0.71
2023-03-07T21:36:39.331Z,-0.73
2023-03-07T21:42:01.707Z,-0.73
2023-03-07T21:47:23.975Z,-0.78
2023-03-07T21:52:47.569Z,-0.73
2023-03-07T21:58:11.350Z,-0.70
2023-03-07T22:03:34.561Z,-0.71
2023-03-07T22:08:57.612Z,-0.71
2023-03-07T22:14:19.928Z,-0.72
2023-03-07T22:19:42.392Z,-0.70
2023-03-07T22:25:05.061Z,-0.66
2023-03-07T22:30:29.652Z,-0.66
2023-03-07T22:35:51.864Z,-0.67
2023-03-07T22:41:26.541Z,-0.68
2023-03-07T22:46:48.887Z,-0.64
2023-03-07T22:52:11.415Z,-0.62
2023-03-07T22:57:33.682Z,-0.59
2023-03-07T23:02:55.985Z,-0.61
2023-03-07T23:08:19.616Z,-0.57
2023-03-07T23:13:41.851Z,-0.53
2023-03-07T23:19:06.130Z,-0.51
2023-03-07T23:24:29.513Z,-0.51
2023-03-07T23:29:51.788Z,-0.46
2023-03-07T23:35:14.356Z,-0.42
2023-03-07T23:40:37.748Z,-0.41
2023-03-07T23:46:00.792Z,-0.44
2023-03-07T23:51:23.212Z,-0.46
2023-03-07T23:56:45.382Z,-0.44
